sensor_id;sensor_type;location;lat;lon;timestamp;temperature;humidity
61641;HTU21D;62201;49.966;8.342;2024-02-28T00:01:50;5.08;105.75
61641;HTU21D;62201;49.966;8.342;2024-02-28T00:04:16;5.03;106.10
61641;HTU21D;62201;49.966;8.342;2024-02-28T00:06:41;5.03;106.11
61641;HTU21D;62201;49.966;8.342;2024-02-28T00:09:06;5.02;106.08
61641;HTU21D;62201;49.966;8.342;2024-02-28T00:11:32;4.95;106.37
61641;HTU21D;62201;49.966;8.342;2024-02-28T00:13:57;5.00;106.19
61641;HTU21D;62201;49.966;8.342;2024-02-28T00:16:25;5.05;105.60
61641;HTU21D;62201;49.966;8.342;2024-02-28T00:18:50;5.07;105.58
61641;HTU21D;62201;49.966;8.342;2024-02-28T00:21:16;5.08;105.60
61641;HTU21D;62201;49.966;8.342;2024-02-28T00:23:42;5.02;105.94
61641;HTU21D;62201;49.966;8.342;2024-02-28T00:26:07;5.07;105.66
61641;HTU21D;62201;49.966;8.342;2024-02-28T00:28:32;5.00;106.34
61641;HTU21D;62201;49.966;8.342;2024-02-28T00:30:58;4.87;106.98
61641;HTU21D;62201;49.966;8.342;2024-02-28T00:33:23;4.78;107.56
61641;HTU21D;62201;49.966;8.342;2024-02-28T00:35:48;4.76;107.58
61641;HTU21D;62201;49.966;8.342;2024-02-28T00:38:13;4.74;108.04
61641;HTU21D;62201;49.966;8.342;2024-02-28T00:40:39;4.65;108.45
61641;HTU21D;62201;49.966;8.342;2024-02-28T00:43:04;4.59;108.89
61641;HTU21D;62201;49.966;8.342;2024-02-28T00:45:30;4.71;108.11
61641;HTU21D;62201;49.966;8.342;2024-02-28T00:47:55;4.68;108.27
61641;HTU21D;62201;49.966;8.342;2024-02-28T00:50:20;4.58;108.73
61641;HTU21D;62201;49.966;8.342;2024-02-28T00:52:46;4.57;108.73
61641;HTU21D;62201;49.966;8.342;2024-02-28T00:55:11;4.62;107.95
61641;HTU21D;62201;49.966;8.342;2024-02-28T00:57:36;4.53;108.88
61641;HTU21D;62201;49.966;8.342;2024-02-28T01:00:02;4.43;109.73
61641;HTU21D;62201;49.966;8.342;2024-02-28T01:02:27;4.47;109.18
61641;HTU21D;62201;49.966;8.342;2024-02-28T01:04:53;4.54;108.75
61641;HTU21D;62201;49.966;8.342;2024-02-28T01:07:18;4.53;108.65
61641;HTU21D;62201;49.966;8.342;2024-02-28T01:09:44;4.49;108.81
61641;HTU21D;62201;49.966;8.342;2024-02-28T01:12:09;4.47;108.59
61641;HTU21D;62201;49.966;8.342;2024-02-28T01:14:35;4.29;109.97
61641;HTU21D;62201;49.966;8.342;2024-02-28T01:17:00;4.39;109.31
61641;HTU21D;62201;49.966;8.342;2024-02-28T01:19:25;4.45;108.56
61641;HTU21D;62201;49.966;8.342;2024-02-28T01:21:51;4.50;107.53
61641;HTU21D;62201;49.966;8.342;2024-02-28T01:24:16;4.54;106.98
61641;HTU21D;62201;49.966;8.342;2024-02-28T01:26:42;4.61;106.31
61641;HTU21D;62201;49.966;8.342;2024-02-28T01:29:07;4.56;106.44
61641;HTU21D;62201;49.966;8.342;2024-02-28T01:31:33;4.64;105.80
61641;HTU21D;62201;49.966;8.342;2024-02-28T01:33:58;4.59;105.85
61641;HTU21D;62201;49.966;8.342;2024-02-28T01:36:24;4.45;106.72
61641;HTU21D;62201;49.966;8.342;2024-02-28T01:38:49;4.43;106.72
61641;HTU21D;62201;49.966;8.342;2024-02-28T01:41:14;4.41;106.88
61641;HTU21D;62201;49.966;8.342;2024-02-28T01:43:40;4.38;107.07
61641;HTU21D;62201;49.966;8.342;2024-02-28T01:46:20;4.32;107.45
61641;HTU21D;62201;49.966;8.342;2024-02-28T01:48:47;4.26;107.75
61641;HTU21D;62201;49.966;8.342;2024-02-28T01:51:13;4.20;108.13
61641;HTU21D;62201;49.966;8.342;2024-02-28T01:53:38;4.17;108.26
61641;HTU21D;62201;49.966;8.342;2024-02-28T01:56:04;4.10;108.61
61641;HTU21D;62201;49.966;8.342;2024-02-28T01:58:29;4.10;108.56
61641;HTU21D;62201;49.966;8.342;2024-02-28T02:00:55;4.16;108.14
61641;HTU21D;62201;49.966;8.342;2024-02-28T02:03:21;4.15;108.17
61641;HTU21D;62201;49.966;8.342;2024-02-28T02:05:47;4.21;108.04
61641;HTU21D;62201;49.966;8.342;2024-02-28T02:08:12;4.20;107.98
61641;HTU21D;62201;49.966;8.342;2024-02-28T02:10:38;4.19;108.33
61641;HTU21D;62201;49.966;8.342;2024-02-28T02:13:06;4.18;108.45
61641;HTU21D;62201;49.966;8.342;2024-02-28T02:15:32;4.10;108.88
61641;HTU21D;62201;49.966;8.342;2024-02-28T02:17:57;4.01;109.31
61641;HTU21D;62201;49.966;8.342;2024-02-28T02:20:23;3.99;109.62
61641;HTU21D;62201;49.966;8.342;2024-02-28T02:22:50;4.02;109.47
61641;HTU21D;62201;49.966;8.342;2024-02-28T02:25:16;4.08;109.10
61641;HTU21D;62201;49.966;8.342;2024-02-28T02:27:41;3.97;109.63
61641;HTU21D;62201;49.966;8.342;2024-02-28T02:30:07;3.89;110.26
61641;HTU21D;62201;49.966;8.342;2024-02-28T02:32:32;3.85;110.92
61641;HTU21D;62201;49.966;8.342;2024-02-28T02:34:57;3.97;110.33
61641;HTU21D;62201;49.966;8.342;2024-02-28T02:37:23;3.95;110.50
61641;HTU21D;62201;49.966;8.342;2024-02-28T02:39:48;4.01;110.20
61641;HTU21D;62201;49.966;8.342;2024-02-28T02:42:16;3.92;111.04
61641;HTU21D;62201;49.966;8.342;2024-02-28T02:44:42;3.91;111.19
61641;HTU21D;62201;49.966;8.342;2024-02-28T02:47:08;3.89;111.34
61641;HTU21D;62201;49.966;8.342;2024-02-28T02:49:33;3.78;111.87
61641;HTU21D;62201;49.966;8.342;2024-02-28T02:51:58;3.74;112.42
61641;HTU21D;62201;49.966;8.342;2024-02-28T02:54:24;3.65;112.98
61641;HTU21D;62201;49.966;8.342;2024-02-28T02:56:49;3.53;114.11
61641;HTU21D;62201;49.966;8.342;2024-02-28T02:59:14;3.43;114.76
61641;HTU21D;62201;49.966;8.342;2024-02-28T03:01:40;3.43;115.12
61641;HTU21D;62201;49.966;8.342;2024-02-28T03:04:05;3.42;115.09
61641;HTU21D;62201;49.966;8.342;2024-02-28T03:06:30;3.36;115.88
61641;HTU21D;62201;49.966;8.342;2024-02-28T03:08:57;3.36;115.79
61641;HTU21D;62201;49.966;8.342;2024-02-28T03:11:22;3.25;116.51
61641;HTU21D;62201;49.966;8.342;2024-02-28T03:13:48;3.30;116.18
61641;HTU21D;62201;49.966;8.342;2024-02-28T03:16:13;3.23;117.07
61641;HTU21D;62201;49.966;8.342;2024-02-28T03:18:39;3.23;116.99
61641;HTU21D;62201;49.966;8.342;2024-02-28T03:21:04;3.18;117.19
61641;HTU21D;62201;49.966;8.342;2024-02-28T03:23:29;3.23;117.51
61641;HTU21D;62201;49.966;8.342;2024-02-28T03:25:55;3.13;117.89
61641;HTU21D;62201;49.966;8.342;2024-02-28T03:28:20;3.17;117.84
61641;HTU21D;62201;49.966;8.342;2024-02-28T03:30:46;3.10;118.08
61641;HTU21D;62201;49.966;8.342;2024-02-28T03:33:11;2.97;118.95
61641;HTU21D;62201;49.966;8.342;2024-02-28T03:35:36;2.95;118.99
61641;HTU21D;62201;49.966;8.342;2024-02-28T03:38:02;2.87;118.99
61641;HTU21D;62201;49.966;8.342;2024-02-28T03:40:27;2.87;118.99
61641;HTU21D;62201;49.966;8.342;2024-02-28T03:42:53;2.85;118.99
61641;HTU21D;62201;49.966;8.342;2024-02-28T03:45:19;2.78;118.99
61641;HTU21D;62201;49.966;8.342;2024-02-28T03:47:45;2.78;118.99
61641;HTU21D;62201;49.966;8.342;2024-02-28T03:50:10;2.59;118.99
61641;HTU21D;62201;49.966;8.342;2024-02-28T03:52:35;2.56;118.99
61641;HTU21D;62201;49.966;8.342;2024-02-28T03:55:01;2.72;118.99
61641;HTU21D;62201;49.966;8.342;2024-02-28T03:57:26;2.62;118.99
61641;HTU21D;62201;49.966;8.342;2024-02-28T03:59:52;2.70;118.99
61641;HTU21D;62201;49.966;8.342;2024-02-28T04:02:17;2.74;118.99
61641;HTU21D;62201;49.966;8.342;2024-02-28T04:04:42;2.81;118.99
61641;HTU21D;62201;49.966;8.342;2024-02-28T04:07:08;2.83;118.99
61641;HTU21D;62201;49.966;8.342;2024-02-28T04:09:33;2.75;118.99
61641;HTU21D;62201;49.966;8.342;2024-02-28T04:11:58;2.69;118.99
61641;HTU21D;62201;49.966;8.342;2024-02-28T04:14:24;2.62;118.99
61641;HTU21D;62201;49.966;8.342;2024-02-28T04:16:49;2.65;118.99
61641;HTU21D;62201;49.966;8.342;2024-02-28T04:19:15;2.65;118.99
61641;HTU21D;62201;49.966;8.342;2024-02-28T04:21:41;2.64;118.99
61641;HTU21D;62201;49.966;8.342;2024-02-28T04:24:06;2.60;118.99
61641;HTU21D;62201;49.966;8.342;2024-02-28T04:26:32;2.60;118.99
61641;HTU21D;62201;49.966;8.342;2024-02-28T04:28:57;2.56;118.99
61641;HTU21D;62201;49.966;8.342;2024-02-28T04:31:22;2.55;118.99
61641;HTU21D;62201;49.966;8.342;2024-02-28T04:33:48;2.55;118.99
61641;HTU21D;62201;49.966;8.342;2024-02-28T04:36:13;2.49;118.99
61641;HTU21D;62201;49.966;8.342;2024-02-28T04:38:40;2.49;118.99
61641;HTU21D;62201;49.966;8.342;2024-02-28T04:41:05;2.43;118.99
61641;HTU21D;62201;49.966;8.342;2024-02-28T04:43:30;2.40;118.99
61641;HTU21D;62201;49.966;8.342;2024-02-28T04:45:56;2.35;118.99
61641;HTU21D;62201;49.966;8.342;2024-02-28T04:48:21;2.28;118.99
61641;HTU21D;62201;49.966;8.342;2024-02-28T04:50:47;2.27;118.99
61641;HTU21D;62201;49.966;8.342;2024-02-28T04:53:12;2.25;118.99
61641;HTU21D;62201;49.966;8.342;2024-02-28T04:55:37;2.20;118.99
61641;HTU21D;62201;49.966;8.342;2024-02-28T04:58:03;2.19;118.99
61641;HTU21D;62201;49.966;8.342;2024-02-28T05:00:28;2.17;118.99
61641;HTU21D;62201;49.966;8.342;2024-02-28T05:02:54;2.11;118.99
61641;HTU21D;62201;49.966;8.342;2024-02-28T05:05:19;2.06;118.99
61641;HTU21D;62201;49.966;8.342;2024-02-28T05:07:44;2.02;118.99
61641;HTU21D;62201;49.966;8.342;2024-02-28T05:10:10;2.00;118.99
61641;HTU21D;62201;49.966;8.342;2024-02-28T05:12:36;1.95;118.99
61641;HTU21D;62201;49.966;8.342;2024-02-28T05:15:01;1.97;118.99
61641;HTU21D;62201;49.966;8.342;2024-02-28T05:17:26;1.96;118.99
61641;HTU21D;62201;49.966;8.342;2024-02-28T05:19:52;1.94;118.99
61641;HTU21D;62201;49.966;8.342;2024-02-28T05:22:18;1.90;118.99
61641;HTU21D;62201;49.966;8.342;2024-02-28T05:24:46;1.92;118.99
61641;HTU21D;62201;49.966;8.342;2024-02-28T05:27:11;1.95;118.99
61641;HTU21D;62201;49.966;8.342;2024-02-28T05:29:36;1.98;118.99
61641;HTU21D;62201;49.966;8.342;2024-02-28T05:32:03;1.94;118.99
61641;HTU21D;62201;49.966;8.342;2024-02-28T05:34:28;1.99;118.99
61641;HTU21D;62201;49.966;8.342;2024-02-28T05:36:53;1.94;118.99
61641;HTU21D;62201;49.966;8.342;2024-02-28T05:39:19;1.92;118.99
61641;HTU21D;62201;49.966;8.342;2024-02-28T05:41:44;1.92;118.99
61641;HTU21D;62201;49.966;8.342;2024-02-28T05:44:09;1.87;118.99
61641;HTU21D;62201;49.966;8.342;2024-02-28T05:46:35;1.93;118.99
61641;HTU21D;62201;49.966;8.342;2024-02-28T05:49:03;1.90;118.99
61641;HTU21D;62201;49.966;8.342;2024-02-28T05:51:28;1.80;118.99
61641;HTU21D;62201;49.966;8.342;2024-02-28T05:53:53;1.83;118.99
61641;HTU21D;62201;49.966;8.342;2024-02-28T05:56:19;1.82;118.99
61641;HTU21D;62201;49.966;8.342;2024-02-28T05:58:45;1.80;118.99
61641;HTU21D;62201;49.966;8.342;2024-02-28T06:01:12;1.81;118.99
61641;HTU21D;62201;49.966;8.342;2024-02-28T06:03:37;1.82;118.99
61641;HTU21D;62201;49.966;8.342;2024-02-28T06:06:03;1.80;118.99
61641;HTU21D;62201;49.966;8.342;2024-02-28T06:08:38;1.83;118.99
61641;HTU21D;62201;49.966;8.342;2024-02-28T06:11:03;1.86;118.99
61641;HTU21D;62201;49.966;8.342;2024-02-28T06:13:30;1.95;118.99
61641;HTU21D;62201;49.966;8.342;2024-02-28T06:15:55;1.93;118.99
61641;HTU21D;62201;49.966;8.342;2024-02-28T06:18:22;1.95;118.99
61641;HTU21D;62201;49.966;8.342;2024-02-28T06:20:48;1.95;118.99
61641;HTU21D;62201;49.966;8.342;2024-02-28T06:23:13;1.98;118.99
61641;HTU21D;62201;49.966;8.342;2024-02-28T06:25:39;1.95;118.99
61641;HTU21D;62201;49.966;8.342;2024-02-28T06:28:04;1.97;118.99
61641;HTU21D;62201;49.966;8.342;2024-02-28T06:30:32;1.99;118.99
61641;HTU21D;62201;49.966;8.342;2024-02-28T06:33:00;1.99;118.99
61641;HTU21D;62201;49.966;8.342;2024-02-28T06:35:26;2.03;118.99
61641;HTU21D;62201;49.966;8.342;2024-02-28T06:37:51;2.07;118.99
61641;HTU21D;62201;49.966;8.342;2024-02-28T06:40:17;2.15;118.99
61641;HTU21D;62201;49.966;8.342;2024-02-28T06:42:42;2.16;118.99
61641;HTU21D;62201;49.966;8.342;2024-02-28T06:45:08;2.24;118.99
61641;HTU21D;62201;49.966;8.342;2024-02-28T06:47:34;2.27;118.99
61641;HTU21D;62201;49.966;8.342;2024-02-28T06:50:02;2.37;118.99
61641;HTU21D;62201;49.966;8.342;2024-02-28T06:52:27;2.41;118.99
61641;HTU21D;62201;49.966;8.342;2024-02-28T06:54:53;2.51;118.99
61641;HTU21D;62201;49.966;8.342;2024-02-28T06:57:19;2.53;118.99
61641;HTU21D;62201;49.966;8.342;2024-02-28T06:59:45;2.61;118.99
61641;HTU21D;62201;49.966;8.342;2024-02-28T07:02:10;2.66;118.99
61641;HTU21D;62201;49.966;8.342;2024-02-28T07:04:35;2.67;118.99
61641;HTU21D;62201;49.966;8.342;2024-02-28T07:07:01;2.69;118.99
61641;HTU21D;62201;49.966;8.342;2024-02-28T07:09:27;2.72;118.99
61641;HTU21D;62201;49.966;8.342;2024-02-28T07:11:56;2.78;118.99
61641;HTU21D;62201;49.966;8.342;2024-02-28T07:14:21;2.86;118.99
61641;HTU21D;62201;49.966;8.342;2024-02-28T07:16:46;2.88;118.99
61641;HTU21D;62201;49.966;8.342;2024-02-28T07:19:12;2.91;118.99
61641;HTU21D;62201;49.966;8.342;2024-02-28T07:21:37;2.85;118.99
61641;HTU21D;62201;49.966;8.342;2024-02-28T07:24:03;2.91;118.99
61641;HTU21D;62201;49.966;8.342;2024-02-28T07:26:31;2.96;118.99
61641;HTU21D;62201;49.966;8.342;2024-02-28T07:28:56;2.96;118.99
61641;HTU21D;62201;49.966;8.342;2024-02-28T07:31:21;3.03;118.99
61641;HTU21D;62201;49.966;8.342;2024-02-28T07:33:47;3.06;118.99
61641;HTU21D;62201;49.966;8.342;2024-02-28T07:36:12;3.02;118.99
61641;HTU21D;62201;49.966;8.342;2024-02-28T07:38:38;3.02;118.99
61641;HTU21D;62201;49.966;8.342;2024-02-28T07:41:04;3.04;118.99
61641;HTU21D;62201;49.966;8.342;2024-02-28T07:43:30;3.06;118.99
61641;HTU21D;62201;49.966;8.342;2024-02-28T07:45:58;3.08;118.99
61641;HTU21D;62201;49.966;8.342;2024-02-28T07:48:23;3.11;118.99
61641;HTU21D;62201;49.966;8.342;2024-02-28T07:50:49;3.18;118.99
61641;HTU21D;62201;49.966;8.342;2024-02-28T07:53:14;3.17;118.99
61641;HTU21D;62201;49.966;8.342;2024-02-28T07:55:40;3.31;118.99
61641;HTU21D;62201;49.966;8.342;2024-02-28T07:58:05;3.31;118.99
61641;HTU21D;62201;49.966;8.342;2024-02-28T08:00:31;3.31;118.99
61641;HTU21D;62201;49.966;8.342;2024-02-28T08:02:58;3.44;118.99
61641;HTU21D;62201;49.966;8.342;2024-02-28T08:05:24;3.68;118.16
61641;HTU21D;62201;49.966;8.342;2024-02-28T08:07:49;3.75;117.47
61641;HTU21D;62201;49.966;8.342;2024-02-28T08:10:15;3.93;116.38
61641;HTU21D;62201;49.966;8.342;2024-02-28T08:12:40;3.99;116.08
61641;HTU21D;62201;49.966;8.342;2024-02-28T08:15:05;3.94;115.62
61641;HTU21D;62201;49.966;8.342;2024-02-28T08:17:31;4.15;115.52
61641;HTU21D;62201;49.966;8.342;2024-02-28T08:19:56;4.27;114.72
61641;HTU21D;62201;49.966;8.342;2024-02-28T08:22:22;4.79;110.01
61641;HTU21D;62201;49.966;8.342;2024-02-28T08:24:51;4.88;108.11
61641;HTU21D;62201;49.966;8.342;2024-02-28T08:27:16;5.00;108.71
61641;HTU21D;62201;49.966;8.342;2024-02-28T08:29:41;5.18;107.43
61641;HTU21D;62201;49.966;8.342;2024-02-28T08:32:10;4.97;109.36
61641;HTU21D;62201;49.966;8.342;2024-02-28T08:34:36;5.34;107.78
61641;HTU21D;62201;49.966;8.342;2024-02-28T08:37:01;5.32;105.32
61641;HTU21D;62201;49.966;8.342;2024-02-28T08:39:26;5.47;105.29
61641;HTU21D;62201;49.966;8.342;2024-02-28T08:41:52;5.27;105.09
61641;HTU21D;62201;49.966;8.342;2024-02-28T08:44:17;5.53;105.56
61641;HTU21D;62201;49.966;8.342;2024-02-28T08:46:43;5.90;101.70
61641;HTU21D;62201;49.966;8.342;2024-02-28T08:49:09;6.23;98.98
61641;HTU21D;62201;49.966;8.342;2024-02-28T08:51:35;6.35;98.35
61641;HTU21D;62201;49.966;8.342;2024-02-28T08:54:00;6.24;100.80
61641;HTU21D;62201;49.966;8.342;2024-02-28T08:56:26;6.44;100.23
61641;HTU21D;62201;49.966;8.342;2024-02-28T08:58:51;6.40;99.72
61641;HTU21D;62201;49.966;8.342;2024-02-28T09:01:16;6.87;97.28
61641;HTU21D;62201;49.966;8.342;2024-02-28T09:03:42;6.06;100.74
61641;HTU21D;62201;49.966;8.342;2024-02-28T09:06:08;6.33;100.35
61641;HTU21D;62201;49.966;8.342;2024-02-28T09:08:33;6.40;99.97
61641;HTU21D;62201;49.966;8.342;2024-02-28T09:10:58;6.63;98.71
61641;HTU21D;62201;49.966;8.342;2024-02-28T09:13:24;7.24;95.20
61641;HTU21D;62201;49.966;8.342;2024-02-28T09:15:49;7.55;95.04
61641;HTU21D;62201;49.966;8.342;2024-02-28T09:18:16;7.22;96.96
61641;HTU21D;62201;49.966;8.342;2024-02-28T09:20:42;8.38;90.86
61641;HTU21D;62201;49.966;8.342;2024-02-28T09:23:07;7.39;93.76
61641;HTU21D;62201;49.966;8.342;2024-02-28T09:25:33;7.68;93.29
61641;HTU21D;62201;49.966;8.342;2024-02-28T09:28:00;7.83;91.31
61641;HTU21D;62201;49.966;8.342;2024-02-28T09:30:26;8.11;91.74
61641;HTU21D;62201;49.966;8.342;2024-02-28T09:32:51;8.48;89.57
61641;HTU21D;62201;49.966;8.342;2024-02-28T09:35:17;8.87;87.80
61641;HTU21D;62201;49.966;8.342;2024-02-28T09:37:42;8.58;87.99
61641;HTU21D;62201;49.966;8.342;2024-02-28T09:40:11;8.70;87.82
61641;HTU21D;62201;49.966;8.342;2024-02-28T09:42:37;9.32;85.93
61641;HTU21D;62201;49.966;8.342;2024-02-28T09:45:03;8.24;89.21
61641;HTU21D;62201;49.966;8.342;2024-02-28T09:47:29;9.92;82.84
61641;HTU21D;62201;49.966;8.342;2024-02-28T09:49:57;9.84;82.66
61641;HTU21D;62201;49.966;8.342;2024-02-28T09:52:26;9.23;85.92
61641;HTU21D;62201;49.966;8.342;2024-02-28T09:54:53;9.42;84.17
61641;HTU21D;62201;49.966;8.342;2024-02-28T09:57:18;10.85;79.43
61641;HTU21D;62201;49.966;8.342;2024-02-28T09:59:44;10.20;84.81
61641;HTU21D;62201;49.966;8.342;2024-02-28T10:02:11;9.99;83.18
61641;HTU21D;62201;49.966;8.342;2024-02-28T10:04:37;10.05;84.14
61641;HTU21D;62201;49.966;8.342;2024-02-28T10:07:12;10.99;79.30
61641;HTU21D;62201;49.966;8.342;2024-02-28T10:09:42;9.61;84.35
61641;HTU21D;62201;49.966;8.342;2024-02-28T10:12:07;9.89;83.87
61641;HTU21D;62201;49.966;8.342;2024-02-28T10:14:33;10.81;79.72
61641;HTU21D;62201;49.966;8.342;2024-02-28T10:16:59;11.45;78.48
61641;HTU21D;62201;49.966;8.342;2024-02-28T10:19:24;10.31;81.30
61641;HTU21D;62201;49.966;8.342;2024-02-28T10:21:50;11.16;78.59
61641;HTU21D;62201;49.966;8.342;2024-02-28T10:24:15;11.18;78.55
61641;HTU21D;62201;49.966;8.342;2024-02-28T10:26:45;9.93;80.99
61641;HTU21D;62201;49.966;8.342;2024-02-28T10:29:13;10.42;80.59
61641;HTU21D;62201;49.966;8.342;2024-02-28T10:31:39;10.83;79.04
61641;HTU21D;62201;49.966;8.342;2024-02-28T10:34:06;9.77;82.70
61641;HTU21D;62201;49.966;8.342;2024-02-28T10:36:32;11.13;77.91
61641;HTU21D;62201;49.966;8.342;2024-02-28T10:38:59;10.41;79.58
61641;HTU21D;62201;49.966;8.342;2024-02-28T10:41:26;11.79;75.04
61641;HTU21D;62201;49.966;8.342;2024-02-28T10:43:51;11.57;75.97
61641;HTU21D;62201;49.966;8.342;2024-02-28T10:46:20;12.46;72.31
61641;HTU21D;62201;49.966;8.342;2024-02-28T10:48:46;13.47;69.78
61641;HTU21D;62201;49.966;8.342;2024-02-28T10:51:15;12.28;73.13
61641;HTU21D;62201;49.966;8.342;2024-02-28T10:53:42;11.61;74.64
61641;HTU21D;62201;49.966;8.342;2024-02-28T10:56:10;11.56;74.19
61641;HTU21D;62201;49.966;8.342;2024-02-28T10:58:36;12.28;72.93
61641;HTU21D;62201;49.966;8.342;2024-02-28T11:01:07;12.47;71.65
61641;HTU21D;62201;49.966;8.342;2024-02-28T11:03:33;11.32;75.45
61641;HTU21D;62201;49.966;8.342;2024-02-28T11:05:59;10.70;76.33
61641;HTU21D;62201;49.966;8.342;2024-02-28T11:08:29;10.49;77.49
61641;HTU21D;62201;49.966;8.342;2024-02-28T11:10:59;12.36;71.37
61641;HTU21D;62201;49.966;8.342;2024-02-28T11:13:27;10.43;78.34
61641;HTU21D;62201;49.966;8.342;2024-02-28T11:15:54;11.81;73.54
61641;HTU21D;62201;49.966;8.342;2024-02-28T11:18:21;11.56;74.48
61641;HTU21D;62201;49.966;8.342;2024-02-28T11:20:47;12.49;71.60
61641;HTU21D;62201;49.966;8.342;2024-02-28T11:23:14;12.22;72.23
61641;HTU21D;62201;49.966;8.342;2024-02-28T11:25:41;10.28;79.62
61641;HTU21D;62201;49.966;8.342;2024-02-28T11:28:07;11.54;74.96
61641;HTU21D;62201;49.966;8.342;2024-02-28T11:30:33;11.18;76.47
61641;HTU21D;62201;49.966;8.342;2024-02-28T11:32:58;12.49;71.72
61641;HTU21D;62201;49.966;8.342;2024-02-28T11:35:27;13.47;67.68
61641;HTU21D;62201;49.966;8.342;2024-02-28T11:37:54;11.30;75.92
61641;HTU21D;62201;49.966;8.342;2024-02-28T11:40:23;11.60;75.00
61641;HTU21D;62201;49.966;8.342;2024-02-28T11:42:50;11.04;76.09
61641;HTU21D;62201;49.966;8.342;2024-02-28T11:45:16;10.26;79.20
61641;HTU21D;62201;49.966;8.342;2024-02-28T11:47:41;11.05;76.34
61641;HTU21D;62201;49.966;8.342;2024-02-28T11:50:07;10.50;77.85
61641;HTU21D;62201;49.966;8.342;2024-02-28T11:52:33;10.70;77.20
61641;HTU21D;62201;49.966;8.342;2024-02-28T11:54:58;10.46;77.21
61641;HTU21D;62201;49.966;8.342;2024-02-28T11:57:25;10.63;75.92
61641;HTU21D;62201;49.966;8.342;2024-02-28T11:59:51;11.26;74.54
61641;HTU21D;62201;49.966;8.342;2024-02-28T12:02:17;11.91;73.54
61641;HTU21D;62201;49.966;8.342;2024-02-28T12:04:43;11.89;72.97
61641;HTU21D;62201;49.966;8.342;2024-02-28T12:07:09;11.92;69.81
61641;HTU21D;62201;49.966;8.342;2024-02-28T12:09:35;12.53;68.62
61641;HTU21D;62201;49.966;8.342;2024-02-28T12:12:01;10.64;71.42
61641;HTU21D;62201;49.966;8.342;2024-02-28T12:14:27;11.53;69.20
61641;HTU21D;62201;49.966;8.342;2024-02-28T12:16:52;11.57;67.84
61641;HTU21D;62201;49.966;8.342;2024-02-28T12:19:17;11.68;68.55
61641;HTU21D;62201;49.966;8.342;2024-02-28T12:21:45;12.07;65.74
61641;HTU21D;62201;49.966;8.342;2024-02-28T12:24:11;12.35;65.89
61641;HTU21D;62201;49.966;8.342;2024-02-28T12:26:37;11.44;68.04
61641;HTU21D;62201;49.966;8.342;2024-02-28T12:29:03;12.51;64.92
61641;HTU21D;62201;49.966;8.342;2024-02-28T12:31:28;11.43;67.75
61641;HTU21D;62201;49.966;8.342;2024-02-28T12:33:54;11.93;67.18
61641;HTU21D;62201;49.966;8.342;2024-02-28T12:36:20;11.53;69.78
61641;HTU21D;62201;49.966;8.342;2024-02-28T12:38:46;12.12;67.40
61641;HTU21D;62201;49.966;8.342;2024-02-28T12:41:11;11.12;70.53
61641;HTU21D;62201;49.966;8.342;2024-02-28T12:43:38;11.84;67.87
61641;HTU21D;62201;49.966;8.342;2024-02-28T12:46:04;11.31;70.40
61641;HTU21D;62201;49.966;8.342;2024-02-28T12:48:29;11.38;68.91
61641;HTU21D;62201;49.966;8.342;2024-02-28T12:50:56;12.17;67.78
61641;HTU21D;62201;49.966;8.342;2024-02-28T12:53:21;11.53;67.64
61641;HTU21D;62201;49.966;8.342;2024-02-28T12:55:47;10.93;69.85
61641;HTU21D;62201;49.966;8.342;2024-02-28T12:58:12;11.31;70.44
61641;HTU21D;62201;49.966;8.342;2024-02-28T13:00:38;10.58;71.45
61641;HTU21D;62201;49.966;8.342;2024-02-28T13:03:03;10.93;70.80
61641;HTU21D;62201;49.966;8.342;2024-02-28T13:05:29;12.65;65.61
61641;HTU21D;62201;49.966;8.342;2024-02-28T13:07:55;12.12;67.39
61641;HTU21D;62201;49.966;8.342;2024-02-28T13:10:20;11.76;66.84
61641;HTU21D;62201;49.966;8.342;2024-02-28T13:12:47;12.21;66.72
61641;HTU21D;62201;49.966;8.342;2024-02-28T13:15:12;11.91;67.68
61641;HTU21D;62201;49.966;8.342;2024-02-28T13:17:38;12.17;66.49
61641;HTU21D;62201;49.966;8.342;2024-02-28T13:20:03;11.02;69.54
61641;HTU21D;62201;49.966;8.342;2024-02-28T13:22:29;10.95;69.26
61641;HTU21D;62201;49.966;8.342;2024-02-28T13:24:55;11.43;68.05
61641;HTU21D;62201;49.966;8.342;2024-02-28T13:27:20;11.42;69.69
61641;HTU21D;62201;49.966;8.342;2024-02-28T13:29:45;10.81;71.28
61641;HTU21D;62201;49.966;8.342;2024-02-28T13:32:12;10.96;70.00
61641;HTU21D;62201;49.966;8.342;2024-02-28T13:34:39;11.99;67.17
61641;HTU21D;62201;49.966;8.342;2024-02-28T13:37:04;12.80;65.33
61641;HTU21D;62201;49.966;8.342;2024-02-28T13:39:30;12.52;65.98
61641;HTU21D;62201;49.966;8.342;2024-02-28T13:41:55;13.17;64.26
61641;HTU21D;62201;49.966;8.342;2024-02-28T13:44:21;12.16;66.22
61641;HTU21D;62201;49.966;8.342;2024-02-28T13:46:46;12.66;64.68
61641;HTU21D;62201;49.966;8.342;2024-02-28T13:49:13;12.69;65.25
61641;HTU21D;62201;49.966;8.342;2024-02-28T13:51:39;13.61;61.98
61641;HTU21D;62201;49.966;8.342;2024-02-28T13:54:05;14.06;59.62
61641;HTU21D;62201;49.966;8.342;2024-02-28T13:56:30;13.11;63.68
61641;HTU21D;62201;49.966;8.342;2024-02-28T13:58:57;11.81;66.01
61641;HTU21D;62201;49.966;8.342;2024-02-28T14:01:22;12.79;63.02
61641;HTU21D;62201;49.966;8.342;2024-02-28T14:03:48;13.27;61.35
61641;HTU21D;62201;49.966;8.342;2024-02-28T14:06:13;12.62;63.99
61641;HTU21D;62201;49.966;8.342;2024-02-28T14:08:39;11.34;68.21
61641;HTU21D;62201;49.966;8.342;2024-02-28T14:11:05;11.94;66.57
61641;HTU21D;62201;49.966;8.342;2024-02-28T14:13:30;13.80;61.13
61641;HTU21D;62201;49.966;8.342;2024-02-28T14:15:56;13.84;59.99
61641;HTU21D;62201;49.966;8.342;2024-02-28T14:18:21;12.95;63.58
61641;HTU21D;62201;49.966;8.342;2024-02-28T14:20:46;13.22;62.37
61641;HTU21D;62201;49.966;8.342;2024-02-28T14:23:12;12.92;62.67
61641;HTU21D;62201;49.966;8.342;2024-02-28T14:25:37;12.10;65.62
61641;HTU21D;62201;49.966;8.342;2024-02-28T14:28:03;11.64;65.80
61641;HTU21D;62201;49.966;8.342;2024-02-28T14:30:29;11.81;65.41
61641;HTU21D;62201;49.966;8.342;2024-02-28T14:32:54;11.63;66.16
61641;HTU21D;62201;49.966;8.342;2024-02-28T14:35:19;11.88;65.42
61641;HTU21D;62201;49.966;8.342;2024-02-28T14:37:45;11.84;66.46
61641;HTU21D;62201;49.966;8.342;2024-02-28T14:40:11;11.60;66.52
61641;HTU21D;62201;49.966;8.342;2024-02-28T14:42:38;12.42;64.63
61641;HTU21D;62201;49.966;8.342;2024-02-28T14:45:13;12.86;62.21
61641;HTU21D;62201;49.966;8.342;2024-02-28T14:47:42;13.18;62.75
61641;HTU21D;62201;49.966;8.342;2024-02-28T14:50:08;13.12;61.06
61641;HTU21D;62201;49.966;8.342;2024-02-28T14:52:37;13.54;58.92
61641;HTU21D;62201;49.966;8.342;2024-02-28T14:55:04;13.36;59.24
61641;HTU21D;62201;49.966;8.342;2024-02-28T14:57:29;13.55;59.21
61641;HTU21D;62201;49.966;8.342;2024-02-28T14:59:56;15.08;55.09
61641;HTU21D;62201;49.966;8.342;2024-02-28T15:02:22;13.65;57.75
61641;HTU21D;62201;49.966;8.342;2024-02-28T15:04:47;13.07;59.96
61641;HTU21D;62201;49.966;8.342;2024-02-28T15:07:15;13.45;57.32
61641;HTU21D;62201;49.966;8.342;2024-02-28T15:09:40;14.42;55.92